createdAt,value
2018-04-12T00:00:58.597Z,3.87
2018-04-12T00:03:24.961Z,3.70
2018-04-12T00:05:51.303Z,3.23
2018-04-12T00:08:17.888Z,3.67
2018-04-12T00:10:44.269Z,3.50
2018-04-12T00:13:10.622Z,3.73
2018-04-12T00:15:37.007Z,4.07
2018-04-12T00:18:03.372Z,3.60
2018-04-12T00:20:29.719Z,3.30
2018-04-12T00:22:56.052Z,3.20
2018-04-12T00:25:22.417Z,3.80
2018-04-12T00:27:49.074Z,3.53
2018-04-12T00:30:15.458Z,3.70
2018-04-12T00:32:41.833Z,3.50
2018-04-12T00:35:08.260Z,3.43
2018-04-12T00:37:34.587Z,3.53
2018-04-12T00:40:01.275Z,3.60
2018-04-12T00:42:27.625Z,3.73
2018-04-12T00:44:53.975Z,3.53
2018-04-12T00:47:20.441Z,3.57
2018-04-12T00:49:46.776Z,3.87
2018-04-12T00:52:13.292Z,3.67
2018-04-12T00:54:39.667Z,3.30
2018-04-12T00:57:06.050Z,3.70
2018-04-12T00:59:32.378Z,3.90
2018-04-12T01:01:58.748Z,3.50
2018-04-12T01:04:25.072Z,3.47
2018-04-12T01:06:51.472Z,3.83
2018-04-12T01:09:17.788Z,3.63
2018-04-12T01:11:44.302Z,3.90
2018-04-12T01:14:10.676Z,3.10
2018-04-12T01:16:37.035Z,4.00
2018-04-12T01:19:03.452Z,3.73
2018-04-12T01:21:29.767Z,3.97
2018-04-12T01:23:56.120Z,3.90
2018-04-12T01:26:22.497Z,3.60
2018-04-12T01:28:48.897Z,3.80
2018-04-12T01:31:15.236Z,4.00
2018-04-12T01:33:41.672Z,3.70
2018-04-12T01:36:08.184Z,3.70
2018-04-12T01:38:34.496Z,3.90
2018-04-12T01:41:00.848Z,3.33
2018-04-12T01:43:27.372Z,3.23
2018-04-12T01:45:53.768Z,3.57
2018-04-12T01:48:20.175Z,3.40
2018-04-12T01:50:46.544Z,3.30
2018-04-12T01:53:12.888Z,3.50
2018-04-12T01:55:39.238Z,3.70
2018-04-12T01:58:05.667Z,3.73
2018-04-12T02:00:32.092Z,3.23
2018-04-12T02:02:58.564Z,3.73
2018-04-12T02:05:24.944Z,3.70
2018-04-12T02:07:51.359Z,3.33
2018-04-12T02:10:18.802Z,3.30
2018-04-12T02:12:45.266Z,3.20
2018-04-12T02:15:11.604Z,3.57
2018-04-12T02:17:38.015Z,3.50
2018-04-12T02:20:05.398Z,3.60
2018-04-12T02:22:31.914Z,3.33
2018-04-12T02:24:58.423Z,3.87
2018-04-12T02:27:24.811Z,3.73
2018-04-12T02:29:51.287Z,3.70
2018-04-12T02:32:17.630Z,3.83
2018-04-12T02:34:44.062Z,3.50
2018-04-12T02:37:10.425Z,3.50
2018-04-12T02:39:36.861Z,3.43
2018-04-12T02:42:03.233Z,3.40
2018-04-12T02:44:29.884Z,3.90
2018-04-12T02:46:56.240Z,3.70
2018-04-12T02:49:22.626Z,3.23
2018-04-12T02:51:48.982Z,3.50
2018-04-12T02:54:15.356Z,3.60
2018-04-12T02:56:41.942Z,3.43
2018-04-12T02:59:08.293Z,3.67
2018-04-12T03:01:34.682Z,3.33
2018-04-12T03:04:01.052Z,3.20
2018-04-12T03:06:27.421Z,3.50
2018-04-12T03:08:53.791Z,4.00
2018-04-12T03:11:20.161Z,3.30
2018-04-12T03:13:46.641Z,3.50
2018-04-12T03:16:12.970Z,3.60
2018-04-12T03:18:39.312Z,3.13
2018-04-12T03:21:05.720Z,3.67
2018-04-12T03:23:32.051Z,4.00
2018-04-12T03:25:58.471Z,5.47
2018-04-12T03:28:24.808Z,3.10
2018-04-12T03:30:51.241Z,3.60
2018-04-12T03:33:17.627Z,3.90
2018-04-12T03:35:44.012Z,3.93
2018-04-12T03:38:10.357Z,3.93
2018-04-12T03:40:37.127Z,3.70
2018-04-12T03:43:03.461Z,4.00
2018-04-12T03:45:29.801Z,7.07
2018-04-12T03:47:56.222Z,4.77
2018-04-12T03:50:22.720Z,3.63
2018-04-12T03:52:49.078Z,3.60
2018-04-12T03:55:15.472Z,4.20
2018-04-12T03:57:41.869Z,3.80
2018-04-12T04:00:09.303Z,3.60
2018-04-12T04:02:35.660Z,3.70
2018-04-12T04:05:02.170Z,4.33
2018-04-12T04:07:28.511Z,4.60
2018-04-12T04:09:54.887Z,4.63
2018-04-12T04:12:21.633Z,4.30
2018-04-12T04:14:48.415Z,4.10
2018-04-12T04:17:14.781Z,4.40
2018-04-12T04:19:41.139Z,4.80
2018-04-12T04:22:07.538Z,4.63
2018-04-12T04:24:33.912Z,4.87
2018-04-12T04:27:00.409Z,5.07
2018-04-12T04:29:26.805Z,4.97
2018-04-12T04:31:53.142Z,4.87
2018-04-12T04:34:19.589Z,4.60
2018-04-12T04:36:45.940Z,4.20
2018-04-12T04:39:12.343Z,5.13
2018-04-12T04:41:38.751Z,4.37
2018-04-12T04:44:05.061Z,4.57
2018-04-12T04:46:31.490Z,4.20
2018-04-12T04:48:57.845Z,4.03
2018-04-12T04:51:24.162Z,4.40
2018-04-12T04:53:50.485Z,4.37
2018-04-12T04:56:16.929Z,4.60
2018-04-12T04:58:43.323Z,4.83
2018-04-12T05:01:09.685Z,5.57
2018-04-12T05:03:36.039Z,4.80
2018-04-12T05:06:02.436Z,4.90
2018-04-12T05:08:28.882Z,4.60
2018-04-12T05:10:55.360Z,5.03
2018-04-12T05:13:21.769Z,5.00
2018-04-12T05:15:48.197Z,4.47
2018-04-12T05:18:14.742Z,4.90
2018-04-12T05:20:41.076Z,4.70
2018-04-12T05:23:07.484Z,4.40
2018-04-12T05:25:33.853Z,5.13
2018-04-12T05:28:00.251Z,4.43
2018-04-12T05:30:26.585Z,4.80
2018-04-12T05:32:52.973Z,4.60
2018-04-12T05:35:19.510Z,4.80
2018-04-12T05:37:45.945Z,4.70
2018-04-12T05:40:12.362Z,4.23
2018-04-12T05:42:38.728Z,5.03
2018-04-12T05:45:05.078Z,4.53
2018-04-12T05:47:31.467Z,5.07
2018-04-12T05:49:57.875Z,6.43
2018-04-12T05:52:24.300Z,5.33
2018-04-12T05:54:50.686Z,4.47
2018-04-12T05:57:17.098Z,5.97
2018-04-12T05:59:43.525Z,5.00
2018-04-12T06:02:09.889Z,5.63
2018-04-12T06:04:36.209Z,6.67
2018-04-12T06:07:02.659Z,6.00
2018-04-12T06:09:29.031Z,5.63
2018-04-12T06:11:55.381Z,4.90
2018-04-12T06:14:22.332Z,5.93
2018-04-12T06:16:48.900Z,5.30
2018-04-12T06:19:15.328Z,5.80
2018-04-12T06:21:41.727Z,4.80
2018-04-12T06:24:08.106Z,4.83
2018-04-12T06:26:34.597Z,5.87
2018-04-12T06:29:01.078Z,5.37
2018-04-12T06:31:29.035Z,4.77
2018-04-12T06:33:55.436Z,5.50
2018-04-12T06:36:21.996Z,5.43
2018-04-12T06:38:48.351Z,4.67
2018-04-12T06:41:14.708Z,5.10
2018-04-12T06:43:41.138Z,4.93
2018-04-12T06:46:08.518Z,5.43
2018-04-12T06:48:34.902Z,6.00
2018-04-12T06:51:01.373Z,5.27
2018-04-12T06:53:27.763Z,4.60
2018-04-12T06:55:55.127Z,5.47
2018-04-12T06:58:21.553Z,4.60
2018-04-12T07:00:47.914Z,4.93
2018-04-12T07:03:14.333Z,5.10
2018-04-12T07:05:40.738Z,4.50
2018-04-12T07:08:07.143Z,4.50
2018-04-12T07:10:33.561Z,5.83
2018-04-12T07:12:59.931Z,5.00
2018-04-12T07:15:26.323Z,4.70
2018-04-12T07:17:52.698Z,4.80
2018-04-12T07:20:19.226Z,5.00
2018-04-12T07:22:45.629Z,5.13
2018-04-12T07:25:11.989Z,5.20
2018-04-12T07:27:38.433Z,5.20
2018-04-12T07:30:04.783Z,4.97
2018-04-12T07:32:31.170Z,4.73
2018-04-12T07:34:57.602Z,6.53
2018-04-12T07:37:25.186Z,6.17
2018-04-12T07:39:55.787Z,6.17
2018-04-12T07:42:22.139Z,5.00
2018-04-12T07:44:48.593Z,6.20
2018-04-12T07:47:14.966Z,5.73
2018-04-12T07:49:41.371Z,6.57
2018-04-12T07:52:07.882Z,5.40
2018-04-12T07:54:34.308Z,7.00
2018-04-12T07:57:00.847Z,6.03
2018-04-12T07:59:27.221Z,4.57
2018-04-12T08:01:53.549Z,5.40
2018-04-12T08:04:20.009Z,5.20
2018-04-12T08:06:46.396Z,5.70
2018-04-12T08:09:12.890Z,5.40
2018-04-12T08:11:39.243Z,5.03
2018-04-12T08:14:05.693Z,3.93
2018-04-12T08:16:32.210Z,4.80
2018-04-12T08:18:58.732Z,6.90
2018-04-12T08:21:25.282Z,5.50
2018-04-12T08:23:52.048Z,5.27
2018-04-12T08:26:18.982Z,5.37
2018-04-12T08:28:45.489Z,5.40
2018-04-12T08:31:11.935Z,6.40
2018-04-12T08:33:39.270Z,6.93
2018-04-12T08:36:05.645Z,7.70
2018-04-12T08:38:32.043Z,8.30
2018-04-12T08:40:58.477Z,7.93
2018-04-12T08:43:24.813Z,9.10
2018-04-12T08:45:51.201Z,7.63
2018-04-12T08:50:58.014Z,7.97
2018-04-12T08:53:24.413Z,8.70
2018-04-12T08:55:50.768Z,8.93
2018-04-12T08:58:17.340Z,6.90
2018-04-12T09:00:43.657Z,7.00
2018-04-12T09:03:10.008Z,8.03
2018-04-12T09:05:36.344Z,7.60
2018-04-12T09:08:02.718Z,7.10
2018-04-12T09:10:29.065Z,6.50
2018-04-12T09:12:55.557Z,6.27
2018-04-12T09:15:21.948Z,6.10
2018-04-12T09:17:48.269Z,6.57
2018-04-12T09:20:14.788Z,5.97
2018-04-12T09:22:41.144Z,7.40
2018-04-12T09:25:07.509Z,6.03
2018-04-12T09:27:33.856Z,6.40
2018-04-12T09:30:00.211Z,5.43
2018-04-12T09:32:26.705Z,6.10
2018-04-12T09:34:53.219Z,5.10
2018-04-12T09:37:19.624Z,5.40
2018-04-12T09:39:46.119Z,5.17
2018-04-12T09:42:12.513Z,4.80
2018-04-12T09:44:38.972Z,4.80
2018-04-12T09:47:05.323Z,5.40
2018-04-12T09:49:33.552Z,5.40
2018-04-12T09:51:59.980Z,5.20
2018-04-12T09:54:26.559Z,5.00
2018-04-12T09:56:53.443Z,5.10
2018-04-12T09:59:20.434Z,5.43
2018-04-12T10:01:47.505Z,5.70
2018-04-12T10:09:18.817Z,4.80
2018-04-12T10:11:45.508Z,6.30
2018-04-12T10:14:12.172Z,5.07
2018-04-12T10:16:39.197Z,5.50
2018-04-12T10:19:06.000Z,5.63
2018-04-12T10:21:33.038Z,4.50
2018-04-12T10:24:00.166Z,4.63
2018-04-12T10:26:27.156Z,4.93
2018-04-12T10:28:58.368Z,4.93
2018-04-12T10:31:25.257Z,4.57
2018-04-12T10:33:52.368Z,5.10
2018-04-12T10:36:19.388Z,4.57
2018-04-12T10:38:46.433Z,4.90
2018-04-12T10:41:14.289Z,4.30
2018-04-12T10:46:58.682Z,5.10
2018-04-12T10:49:26.266Z,4.23
2018-04-12T10:51:56.976Z,4.67
2018-04-12T10:54:29.357Z,4.87
2018-04-12T10:56:56.601Z,4.43
2018-04-12T10:59:23.693Z,4.50
2018-04-12T11:01:51.579Z,4.13
2018-04-12T11:04:26.183Z,4.37
2018-04-12T11:06:53.481Z,4.10
2018-04-12T11:09:20.616Z,4.80
2018-04-12T11:11:48.432Z,4.63
2018-04-12T11:14:15.462Z,4.63
2018-04-12T11:16:45.636Z,5.30
2018-04-12T11:21:48.026Z,4.30
2018-04-12T11:26:49.177Z,4.30
2018-04-12T11:34:38.004Z,4.83
2018-04-12T11:37:05.187Z,5.30
2018-04-12T11:39:38.632Z,5.53
2018-04-12T11:42:06.295Z,4.30
2018-04-12T11:47:09.146Z,5.20
2018-04-12T11:52:21.133Z,6.10
2018-04-12T11:54:48.387Z,3.80
2018-04-12T11:57:16.543Z,5.07
2018-04-12T11:59:52.668Z,4.40
2018-04-12T12:02:20.174Z,4.10
2018-04-12T12:04:47.007Z,5.60
2018-04-12T12:07:15.426Z,4.33
2018-04-12T12:09:43.688Z,4.60
2018-04-12T12:12:11.814Z,4.27
2018-04-12T12:14:39.620Z,4.47
2018-04-12T12:19:38.509Z,4.20
2018-04-12T12:22:04.886Z,4.03
2018-04-12T12:24:31.218Z,3.97
2018-04-12T12:26:57.564Z,4.03
2018-04-12T12:29:24.064Z,3.90
2018-04-12T12:31:50.457Z,4.40
2018-04-12T12:34:17.113Z,3.67
2018-04-12T12:36:43.507Z,4.10
2018-04-12T12:39:09.963Z,4.03
2018-04-12T12:41:36.507Z,3.73
2018-04-12T12:44:02.930Z,4.33
2018-04-12T12:46:29.483Z,4.10
2018-04-12T12:48:55.991Z,4.33
2018-04-12T12:51:22.742Z,4.70
2018-04-12T12:53:49.121Z,4.03
2018-04-12T12:56:15.514Z,4.30
2018-04-12T12:58:41.872Z,3.97
2018-04-12T13:01:08.261Z,3.70
2018-04-12T13:03:34.621Z,3.60
2018-04-12T13:06:00.989Z,3.50
2018-04-12T13:08:27.416Z,3.33
2018-04-12T13:10:53.768Z,3.50
2018-04-12T13:13:20.115Z,3.30
2018-04-12T13:15:46.662Z,4.20
2018-04-12T13:18:13.103Z,3.73
2018-04-12T13:20:39.544Z,3.97
2018-04-12T13:23:05.903Z,4.10
2018-04-12T13:25:32.284Z,4.00
2018-04-12T13:27:58.625Z,3.70
2018-04-12T13:30:25.010Z,3.53
2018-04-12T13:32:51.332Z,3.77
2018-04-12T13:35:17.736Z,3.53
2018-04-12T13:37:44.161Z,3.90
2018-04-12T13:40:10.543Z,3.60
2018-04-12T13:42:36.946Z,4.10
2018-04-12T13:45:03.343Z,3.87
2018-04-12T13:47:29.903Z,3.80
2018-04-12T13:49:56.320Z,3.80
2018-04-12T13:52:22.761Z,4.50
2018-04-12T13:54:49.173Z,3.83
2018-04-12T13:57:15.490Z,3.73
2018-04-12T13:59:41.890Z,4.53
2018-04-12T14:02:08.229Z,4.90
2018-04-12T14:04:34.596Z,4.90
2018-04-12T14:07:00.972Z,4.80
2018-04-12T14:09:27.312Z,4.40
2018-04-12T14:11:53.697Z,4.90
2018-04-12T14:14:20.042Z,4.00
2018-04-12T14:16:46.449Z,5.03
2018-04-12T14:19:12.773Z,4.00
2018-04-12T14:21:39.163Z,4.13
2018-04-12T14:24:05.577Z,4.30
2018-04-12T14:26:33.286Z,3.97
2018-04-12T14:29:00.291Z,3.57
2018-04-12T14:31:27.154Z,3.90
2018-04-12T14:33:53.625Z,4.00
2018-04-12T14:36:20.596Z,4.17
2018-04-12T14:38:47.336Z,3.80
2018-04-12T14:41:13.721Z,4.07
2018-04-12T14:43:40.091Z,4.27
2018-04-12T14:46:06.581Z,3.40
2018-04-12T14:48:33.002Z,3.63
2018-04-12T14:50:59.499Z,3.70
2018-04-12T14:53:26.030Z,3.40
2018-04-12T14:55:52.457Z,3.53
2018-04-12T14:58:19.024Z,3.10
2018-04-12T15:00:45.623Z,3.30
2018-04-12T15:03:12.096Z,3.50
2018-04-12T15:05:38.424Z,3.73
2018-04-12T15:08:04.777Z,3.57
2018-04-12T15:10:31.253Z,4.03
2018-04-12T15:12:57.748Z,3.50
2018-04-12T15:15:24.126Z,3.70
2018-04-12T15:17:50.444Z,3.20
2018-04-12T15:20:16.833Z,3.83
2018-04-12T15:22:43.396Z,4.00
2018-04-12T15:25:09.902Z,3.90
2018-04-12T15:27:36.266Z,3.37
2018-04-12T15:30:02.683Z,3.60
2018-04-12T15:32:29.090Z,3.60
2018-04-12T15:34:55.472Z,3.57
2018-04-12T15:37:21.794Z,3.30
2018-04-12T15:39:48.295Z,3.73
2018-04-12T15:42:14.624Z,3.43
2018-04-12T15:44:41.122Z,3.40
2018-04-12T15:47:07.571Z,3.63
2018-04-12T15:49:34.318Z,3.40
2018-04-12T15:52:00.661Z,3.80
2018-04-12T15:54:26.986Z,3.30
2018-04-12T15:56:53.324Z,4.03
2018-04-12T15:59:19.680Z,3.93
2018-04-12T16:01:46.280Z,3.47
2018-04-12T16:04:12.726Z,3.97
2018-04-12T16:06:39.085Z,3.77
2018-04-12T16:09:05.427Z,3.40
2018-04-12T16:11:31.848Z,3.70
2018-04-12T16:13:58.205Z,4.60
2018-04-12T16:16:24.568Z,3.40
2018-04-12T16:18:50.899Z,3.20
2018-04-12T16:21:17.252Z,3.80
2018-04-12T16:23:43.692Z,3.50
2018-04-12T16:26:10.079Z,3.40
2018-04-12T16:28:36.574Z,3.73
2018-04-12T16:31:02.896Z,3.77
2018-04-12T16:33:29.264Z,3.87
2018-04-12T16:35:55.626Z,3.27
2018-04-12T16:38:22.120Z,3.77
2018-04-12T16:40:48.441Z,3.80
2018-04-12T16:43:14.797Z,3.80
2018-04-12T16:45:41.113Z,3.90
2018-04-12T16:48:07.484Z,3.50
2018-04-12T16:50:33.820Z,3.40
2018-04-12T16:53:00.145Z,3.87
2018-04-12T16:55:26.520Z,4.00
2018-04-12T16:57:52.889Z,3.30
2018-04-12T17:00:19.220Z,3.93
2018-04-12T17:02:45.535Z,4.00
2018-04-12T17:05:11.904Z,3.70
2018-04-12T17:07:38.229Z,3.60
2018-04-12T17:10:04.574Z,4.63
2018-04-12T17:12:31.044Z,3.67
2018-04-12T17:14:57.360Z,4.13
2018-04-12T17:17:23.793Z,3.57
2018-04-12T17:19:50.120Z,3.80
2018-04-12T17:22:16.512Z,4.13
2018-04-12T17:24:42.898Z,3.93
2018-04-12T17:27:09.272Z,4.50
2018-04-12T17:29:35.609Z,4.60
2018-04-12T17:32:01.964Z,4.30
2018-04-12T17:34:28.280Z,3.60
2018-04-12T17:36:54.592Z,4.20
2018-04-12T17:39:20.908Z,4.00
2018-04-12T17:41:47.236Z,3.73
2018-04-12T17:44:13.546Z,3.97
2018-04-12T17:46:39.904Z,3.97
2018-04-12T17:49:06.229Z,4.30
2018-04-12T17:51:32.552Z,3.80
2018-04-12T17:53:58.927Z,4.17
2018-04-12T17:56:25.250Z,3.93
2018-04-12T17:58:51.573Z,4.30
2018-04-12T18:01:17.879Z,4.10
2018-04-12T18:03:44.200Z,4.83
2018-04-12T18:06:10.555Z,4.20
2018-04-12T18:08:36.884Z,4.30
2018-04-12T18:11:03.198Z,4.40
2018-04-12T18:13:29.646Z,4.50
2018-04-12T18:15:55.960Z,4.77
2018-04-12T18:18:22.283Z,4.43
2018-04-12T18:20:48.623Z,4.30
2018-04-12T18:23:14.940Z,4.10
2018-04-12T18:25:41.307Z,4.20
2018-04-12T18:28:07.651Z,4.63
2018-04-12T18:30:33.980Z,5.40
2018-04-12T18:33:00.305Z,4.30
2018-04-12T18:35:26.635Z,4.70
2018-04-12T18:37:52.992Z,4.77
2018-04-12T18:40:19.391Z,4.47
2018-04-12T18:42:45.756Z,4.70
2018-04-12T18:45:12.100Z,4.83
2018-04-12T18:47:38.444Z,5.10
2018-04-12T18:50:04.792Z,4.77
2018-04-12T18:52:31.114Z,4.57
2018-04-12T18:54:57.472Z,4.73
2018-04-12T18:57:23.826Z,5.57
2018-04-12T18:59:50.136Z,4.80
2018-04-12T19:02:16.490Z,4.70
2018-04-12T19:04:42.852Z,4.40
2018-04-12T19:07:09.201Z,5.37
2018-04-12T19:09:35.592Z,5.20
2018-04-12T19:12:02.012Z,5.30
2018-04-12T19:14:28.338Z,4.60
2018-04-12T19:16:54.684Z,4.83
2018-04-12T19:19:21.028Z,4.80
2018-04-12T19:21:47.465Z,5.30
2018-04-12T19:24:13.781Z,5.30
2018-04-12T19:26:40.089Z,5.53
2018-04-12T19:29:06.410Z,4.70
2018-04-12T19:31:32.761Z,5.10
2018-04-12T19:33:59.132Z,5.10
2018-04-12T19:36:25.453Z,4.80
2018-04-12T19:38:51.879Z,5.27
2018-04-12T19:41:18.404Z,5.20
2018-04-12T19:43:44.733Z,4.57
2018-04-12T19:46:18.599Z,5.40
2018-04-12T19:48:44.936Z,5.50
2018-04-12T19:51:11.261Z,5.60
2018-04-12T19:53:37.626Z,4.63
2018-04-12T19:56:04.000Z,4.87
2018-04-12T19:58:30.331Z,5.20
2018-04-12T20:00:56.675Z,5.57
2018-04-12T20:03:22.993Z,5.10
2018-04-12T20:05:49.329Z,4.90
2018-04-12T20:08:15.773Z,4.90
2018-04-12T20:10:42.143Z,5.17
2018-04-12T20:13:08.568Z,4.80
2018-04-12T20:15:34.897Z,5.30
2018-04-12T20:18:01.252Z,5.57
2018-04-12T20:20:27.644Z,6.07
2018-04-12T20:22:54.120Z,4.97
2018-04-12T20:25:20.491Z,5.10
2018-04-12T20:27:46.914Z,5.50
2018-04-12T20:30:13.261Z,5.20
2018-04-12T20:32:39.640Z,5.50
2018-04-12T20:35:06.196Z,4.80
2018-04-12T20:37:32.569Z,5.40
2018-04-12T20:39:58.894Z,5.00
2018-04-12T20:42:25.218Z,4.83
2018-04-12T20:44:51.542Z,5.07
2018-04-12T20:47:17.887Z,5.17
2018-04-12T20:49:44.319Z,5.40
2018-04-12T20:52:10.642Z,5.27
2018-04-12T20:54:36.959Z,4.90
2018-04-12T20:57:03.424Z,5.00
2018-04-12T20:59:29.777Z,4.97
2018-04-12T21:01:56.282Z,5.17
2018-04-12T21:04:22.601Z,4.73
2018-04-12T21:06:49.022Z,5.00
2018-04-12T21:09:15.403Z,4.60
2018-04-12T21:11:41.756Z,4.80
2018-04-12T21:14:08.134Z,5.00
2018-04-12T21:16:34.516Z,4.37
2018-04-12T21:19:00.841Z,4.50
2018-04-12T21:21:27.201Z,4.63
2018-04-12T21:23:53.621Z,4.73
2018-04-12T21:26:20.023Z,5.10
2018-04-12T21:28:46.353Z,4.67
2018-04-12T21:31:12.757Z,5.30
2018-04-12T21:33:39.093Z,5.17
2018-04-12T21:36:05.503Z,5.00
2018-04-12T21:38:31.909Z,4.80
2018-04-12T21:40:58.394Z,5.03
2018-04-12T21:43:24.716Z,4.77
2018-04-12T21:45:51.051Z,5.00
2018-04-12T21:48:17.370Z,4.77
2018-04-12T21:50:43.744Z,5.17
2018-04-12T21:53:10.173Z,4.73
2018-04-12T21:55:36.512Z,4.43
2018-04-12T21:58:02.843Z,4.80
2018-04-12T22:00:29.188Z,4.73
2018-04-12T22:02:55.505Z,4.60
2018-04-12T22:05:21.836Z,4.90
2018-04-12T22:07:48.351Z,4.43
2018-04-12T22:10:14.971Z,4.90
2018-04-12T22:12:41.300Z,4.50
2018-04-12T22:15:07.661Z,4.30
2018-04-12T22:17:33.976Z,4.70
2018-04-12T22:20:00.332Z,4.33
2018-04-12T22:22:26.782Z,4.40
2018-04-12T22:24:53.210Z,4.80
2018-04-12T22:27:19.548Z,4.30
2018-04-12T22:29:45.880Z,4.77
2018-04-12T22:32:12.204Z,5.07
2018-04-12T22:34:38.569Z,4.40
2018-04-12T22:37:04.918Z,5.10
2018-04-12T22:39:31.305Z,5.30
2018-04-12T22:41:57.622Z,4.57
2018-04-12T22:44:24.252Z,4.70
2018-04-12T22:46:50.653Z,4.20
2018-04-12T22:49:16.991Z,4.20
2018-04-12T22:51:43.304Z,4.33
2018-04-12T22:54:09.632Z,4.40
2018-04-12T22:56:35.996Z,4.20
2018-04-12T22:59:02.316Z,5.20
2018-04-12T23:01:28.773Z,4.47
2018-04-12T23:03:55.090Z,5.63
2018-04-12T23:06:21.448Z,4.50
2018-04-12T23:08:47.849Z,4.10
2018-04-12T23:11:14.321Z,5.03
2018-04-12T23:13:40.775Z,4.60
2018-04-12T23:16:07.131Z,4.17
2018-04-12T23:18:33.530Z,4.67
2018-04-12T23:21:00.004Z,4.43
2018-04-12T23:23:26.324Z,4.17
2018-04-12T23:25:52.675Z,4.80
2018-04-12T23:28:19.103Z,4.73
2018-04-12T23:30:45.434Z,4.40
2018-04-12T23:33:11.885Z,4.90
2018-04-12T23:35:38.205Z,4.90
2018-04-12T23:38:04.566Z,4.33
2018-04-12T23:40:30.922Z,4.47
2018-04-12T23:42:57.236Z,4.60
2018-04-12T23:45:23.600Z,4.73
2018-04-12T23:47:49.944Z,5.00
2018-04-12T23:50:16.397Z,4.20
2018-04-12T23:52:42.829Z,4.57
2018-04-12T23:55:09.187Z,4.97
2018-04-12T23:57:35.559Z,4.20
